sensor_id;sensor_type;location;lat;lon;timestamp;P1;durP1;ratioP1;P2;durP2;ratioP2
63350;SDS011;64988;51.058;17.040;2023-02-28T00:00:14;43.33;;;19.98;;
63350;SDS011;64988;51.058;17.040;2023-02-28T00:05:43;39.78;;;16.98;;
63350;SDS011;64988;51.058;17.040;2023-02-28T00:11:11;49.00;;;18.55;;
63350;SDS011;64988;51.058;17.040;2023-02-28T00:16:40;35.92;;;18.02;;
63350;SDS011;64988;51.058;17.040;2023-02-28T00:22:09;39.90;;;17.63;;
63350;SDS011;64988;51.058;17.040;2023-02-28T00:27:37;46.60;;;17.02;;
63350;SDS011;64988;51.058;17.040;2023-02-28T00:33:06;34.67;;;15.63;;
63350;SDS011;64988;51.058;17.040;2023-02-28T00:38:33;41.72;;;16.85;;
63350;SDS011;64988;51.058;17.040;2023-02-28T00:44:00;31.33;;;14.98;;
63350;SDS011;64988;51.058;17.040;2023-02-28T00:49:31;43.60;;;19.10;;
63350;SDS011;64988;51.058;17.040;2023-02-28T00:54:59;42.78;;;18.45;;
63350;SDS011;64988;51.058;17.040;2023-02-28T01:00:26;35.45;;;16.75;;
63350;SDS011;64988;51.058;17.040;2023-02-28T01:05:52;32.63;;;16.58;;
63350;SDS011;64988;51.058;17.040;2023-02-28T01:11:20;39.95;;;16.58;;
63350;SDS011;64988;51.058;17.040;2023-02-28T01:16:47;39.80;;;17.92;;
63350;SDS011;64988;51.058;17.040;2023-02-28T01:22:15;37.65;;;16.55;;
63350;SDS011;64988;51.058;17.040;2023-02-28T01:27:43;42.85;;;20.60;;
63350;SDS011;64988;51.058;17.040;2023-02-28T01:33:10;41.90;;;17.25;;
63350;SDS011;64988;51.058;17.040;2023-02-28T01:38:37;35.85;;;16.23;;
63350;SDS011;64988;51.058;17.040;2023-02-28T01:50:15;45.78;;;18.60;;
63350;SDS011;64988;51.058;17.040;2023-02-28T01:55:47;45.83;;;18.33;;
63350;SDS011;64988;51.058;17.040;2023-02-28T02:01:20;43.55;;;19.02;;
63350;SDS011;64988;51.058;17.040;2023-02-28T02:06:50;40.00;;;18.10;;
63350;SDS011;64988;51.058;17.040;2023-02-28T02:12:55;46.85;;;19.05;;
63350;SDS011;64988;51.058;17.040;2023-02-28T02:24:40;36.67;;;17.42;;
63350;SDS011;64988;51.058;17.040;2023-02-28T02:41:13;46.88;;;19.77;;
63350;SDS011;64988;51.058;17.040;2023-02-28T02:46:43;41.95;;;17.98;;
63350;SDS011;64988;51.058;17.040;2023-02-28T02:52:12;37.83;;;16.50;;
63350;SDS011;64988;51.058;17.040;2023-02-28T02:57:48;39.25;;;18.42;;
63350;SDS011;64988;51.058;17.040;2023-02-28T03:03:19;43.53;;;17.42;;
63350;SDS011;64988;51.058;17.040;2023-02-28T03:08:56;40.78;;;18.98;;
63350;SDS011;64988;51.058;17.040;2023-02-28T03:14:36;41.45;;;17.95;;
63350;SDS011;64988;51.058;17.040;2023-02-28T03:26:15;38.47;;;18.55;;
63350;SDS011;64988;51.058;17.040;2023-02-28T03:31:48;43.63;;;17.77;;
63350;SDS011;64988;51.058;17.040;2023-02-28T03:37:22;40.03;;;18.05;;
63350;SDS011;64988;51.058;17.040;2023-02-28T03:42:54;43.50;;;18.35;;
63350;SDS011;64988;51.058;17.040;2023-02-28T03:48:31;36.85;;;16.98;;
63350;SDS011;64988;51.058;17.040;2023-02-28T03:54:07;40.63;;;18.90;;
63350;SDS011;64988;51.058;17.040;2023-02-28T03:59:59;38.58;;;16.85;;
63350;SDS011;64988;51.058;17.040;2023-02-28T04:05:52;40.38;;;18.92;;
63350;SDS011;64988;51.058;17.040;2023-02-28T04:17:05;49.78;;;18.75;;
63350;SDS011;64988;51.058;17.040;2023-02-28T04:22:33;44.60;;;19.48;;
63350;SDS011;64988;51.058;17.040;2023-02-28T04:28:00;43.47;;;19.15;;
63350;SDS011;64988;51.058;17.040;2023-02-28T04:33:27;42.47;;;17.38;;
63350;SDS011;64988;51.058;17.040;2023-02-28T04:38:56;32.92;;;16.80;;
63350;SDS011;64988;51.058;17.040;2023-02-28T04:44:23;36.67;;;16.38;;
63350;SDS011;64988;51.058;17.040;2023-02-28T04:49:50;41.55;;;17.60;;
63350;SDS011;64988;51.058;17.040;2023-02-28T04:55:17;43.47;;;19.15;;
63350;SDS011;64988;51.058;17.040;2023-02-28T05:00:44;41.78;;;17.90;;
63350;SDS011;64988;51.058;17.040;2023-02-28T05:06:12;42.42;;;19.33;;
63350;SDS011;64988;51.058;17.040;2023-02-28T05:11:41;46.00;;;20.65;;
63350;SDS011;64988;51.058;17.040;2023-02-28T05:17:09;49.85;;;21.70;;
63350;SDS011;64988;51.058;17.040;2023-02-28T05:22:38;38.25;;;19.35;;
63350;SDS011;64988;51.058;17.040;2023-02-28T05:28:05;49.00;;;21.88;;
63350;SDS011;64988;51.058;17.040;2023-02-28T05:33:33;46.90;;;20.88;;
63350;SDS011;64988;51.058;17.040;2023-02-28T05:39:00;38.55;;;19.02;;
63350;SDS011;64988;51.058;17.040;2023-02-28T05:44:27;45.03;;;18.10;;
63350;SDS011;64988;51.058;17.040;2023-02-28T05:49:55;50.58;;;20.85;;
63350;SDS011;64988;51.058;17.040;2023-02-28T05:55:22;44.75;;;21.35;;
63350;SDS011;64988;51.058;17.040;2023-02-28T06:00:50;48.17;;;20.75;;
63350;SDS011;64988;51.058;17.040;2023-02-28T06:06:17;45.85;;;21.02;;
63350;SDS011;64988;51.058;17.040;2023-02-28T06:11:44;68.13;;;20.92;;
63350;SDS011;64988;51.058;17.040;2023-02-28T06:17:12;42.45;;;20.55;;
63350;SDS011;64988;51.058;17.040;2023-02-28T06:22:39;43.15;;;20.30;;
63350;SDS011;64988;51.058;17.040;2023-02-28T06:28:06;39.92;;;20.02;;
63350;SDS011;64988;51.058;17.040;2023-02-28T06:33:34;44.13;;;19.50;;
63350;SDS011;64988;51.058;17.040;2023-02-28T06:39:02;37.97;;;18.85;;
63350;SDS011;64988;51.058;17.040;2023-02-28T06:44:30;36.17;;;16.27;;
63350;SDS011;64988;51.058;17.040;2023-02-28T06:50:04;28.38;;;14.43;;
63350;SDS011;64988;51.058;17.040;2023-02-28T06:55:39;34.78;;;16.88;;
63350;SDS011;64988;51.058;17.040;2023-02-28T07:01:13;26.85;;;14.43;;
63350;SDS011;64988;51.058;17.040;2023-02-28T07:06:44;30.52;;;17.35;;
63350;SDS011;64988;51.058;17.040;2023-02-28T07:12:14;24.55;;;14.70;;
63350;SDS011;64988;51.058;17.040;2023-02-28T07:17:45;26.70;;;16.70;;
63350;SDS011;64988;51.058;17.040;2023-02-28T07:23:17;31.55;;;18.10;;
63350;SDS011;64988;51.058;17.040;2023-02-28T07:28:49;26.05;;;16.58;;
63350;SDS011;64988;51.058;17.040;2023-02-28T07:34:22;22.57;;;14.07;;
63350;SDS011;64988;51.058;17.040;2023-02-28T07:39:57;19.63;;;14.45;;
63350;SDS011;64988;51.058;17.040;2023-02-28T07:45:28;17.40;;;12.68;;
63350;SDS011;64988;51.058;17.040;2023-02-28T07:50:56;19.33;;;12.30;;
63350;SDS011;64988;51.058;17.040;2023-02-28T07:56:24;15.07;;;12.18;;
63350;SDS011;64988;51.058;17.040;2023-02-28T08:01:52;16.85;;;10.35;;
63350;SDS011;64988;51.058;17.040;2023-02-28T08:07:20;17.55;;;12.02;;
63350;SDS011;64988;51.058;17.040;2023-02-28T08:12:48;13.05;;;9.93;;
63350;SDS011;64988;51.058;17.040;2023-02-28T08:18:15;10.70;;;8.25;;
63350;SDS011;64988;51.058;17.040;2023-02-28T08:23:48;11.02;;;8.10;;
63350;SDS011;64988;51.058;17.040;2023-02-28T08:29:17;15.27;;;9.40;;
63350;SDS011;64988;51.058;17.040;2023-02-28T08:34:45;12.07;;;8.85;;
63350;SDS011;64988;51.058;17.040;2023-02-28T08:40:14;16.40;;;11.02;;
63350;SDS011;64988;51.058;17.040;2023-02-28T08:45:45;14.18;;;10.98;;
63350;SDS011;64988;51.058;17.040;2023-02-28T08:51:14;15.38;;;11.43;;
63350;SDS011;64988;51.058;17.040;2023-02-28T08:56:49;19.17;;;12.60;;
63350;SDS011;64988;51.058;17.040;2023-02-28T09:02:17;17.00;;;12.90;;
63350;SDS011;64988;51.058;17.040;2023-02-28T09:07:44;16.83;;;12.20;;
63350;SDS011;64988;51.058;17.040;2023-02-28T09:13:12;20.05;;;13.68;;
63350;SDS011;64988;51.058;17.040;2023-02-28T09:18:39;16.40;;;11.35;;
63350;SDS011;64988;51.058;17.040;2023-02-28T09:24:07;22.83;;;11.75;;
63350;SDS011;64988;51.058;17.040;2023-02-28T09:29:35;8.48;;;6.25;;
63350;SDS011;64988;51.058;17.040;2023-02-28T09:35:02;10.43;;;6.60;;
63350;SDS011;64988;51.058;17.040;2023-02-28T09:40:30;11.60;;;6.25;;
63350;SDS011;64988;51.058;17.040;2023-02-28T10:08:48;13.65;;;8.43;;
63350;SDS011;64988;51.058;17.040;2023-02-28T10:14:29;12.77;;;7.38;;
63350;SDS011;64988;51.058;17.040;2023-02-28T10:25:35;12.18;;;7.68;;
63350;SDS011;64988;51.058;17.040;2023-02-28T10:31:04;16.25;;;8.70;;
63350;SDS011;64988;51.058;17.040;2023-02-28T10:36:32;14.10;;;7.95;;
63350;SDS011;64988;51.058;17.040;2023-02-28T10:42:01;14.80;;;8.25;;
63350;SDS011;64988;51.058;17.040;2023-02-28T10:47:33;16.08;;;9.05;;
63350;SDS011;64988;51.058;17.040;2023-02-28T10:53:46;18.05;;;9.88;;
63350;SDS011;64988;51.058;17.040;2023-02-28T11:04:33;13.23;;;7.97;;
63350;SDS011;64988;51.058;17.040;2023-02-28T11:10:03;14.43;;;8.80;;
63350;SDS011;64988;51.058;17.040;2023-02-28T11:15:34;17.88;;;8.73;;
63350;SDS011;64988;51.058;17.040;2023-02-28T11:21:02;12.90;;;7.15;;
63350;SDS011;64988;51.058;17.040;2023-02-28T11:26:44;16.08;;;7.07;;
63350;SDS011;64988;51.058;17.040;2023-02-28T11:32:16;14.70;;;8.93;;
63350;SDS011;64988;51.058;17.040;2023-02-28T11:37:57;17.50;;;8.85;;
63350;SDS011;64988;51.058;17.040;2023-02-28T11:49:14;17.70;;;9.95;;
63350;SDS011;64988;51.058;17.040;2023-02-28T11:55:18;15.25;;;8.73;;
63350;SDS011;64988;51.058;17.040;2023-02-28T12:06:45;15.30;;;8.70;;
63350;SDS011;64988;51.058;17.040;2023-02-28T12:12:56;22.55;;;8.32;;
63350;SDS011;64988;51.058;17.040;2023-02-28T12:30:16;19.83;;;9.32;;
63350;SDS011;64988;51.058;17.040;2023-02-28T12:41:27;15.57;;;9.60;;
63350;SDS011;64988;51.058;17.040;2023-02-28T12:47:31;19.75;;;8.25;;
63350;SDS011;64988;51.058;17.040;2023-02-28T12:53:00;23.80;;;11.30;;
63350;SDS011;64988;51.058;17.040;2023-02-28T12:58:38;25.65;;;10.90;;
63350;SDS011;64988;51.058;17.040;2023-02-28T13:09:57;15.95;;;7.00;;
63350;SDS011;64988;51.058;17.040;2023-02-28T13:15:28;17.95;;;9.60;;
63350;SDS011;64988;51.058;17.040;2023-02-28T13:20:55;21.75;;;11.38;;
63350;SDS011;64988;51.058;17.040;2023-02-28T13:37:36;21.25;;;10.52;;
63350;SDS011;64988;51.058;17.040;2023-02-28T13:43:09;27.85;;;12.27;;
63350;SDS011;64988;51.058;17.040;2023-02-28T13:48:37;16.23;;;8.93;;
63350;SDS011;64988;51.058;17.040;2023-02-28T13:54:10;21.17;;;9.65;;
63350;SDS011;64988;51.058;17.040;2023-02-28T14:00:07;23.55;;;11.35;;
63350;SDS011;64988;51.058;17.040;2023-02-28T14:11:42;24.57;;;10.57;;
63350;SDS011;64988;51.058;17.040;2023-02-28T14:17:14;27.35;;;12.85;;
63350;SDS011;64988;51.058;17.040;2023-02-28T14:22:53;25.23;;;9.80;;
63350;SDS011;64988;51.058;17.040;2023-02-28T14:40:17;27.98;;;12.80;;
63350;SDS011;64988;51.058;17.040;2023-02-28T14:45:49;17.38;;;8.40;;
63350;SDS011;64988;51.058;17.040;2023-02-28T14:51:21;31.00;;;14.77;;
63350;SDS011;64988;51.058;17.040;2023-02-28T14:56:50;30.85;;;14.07;;
63350;SDS011;64988;51.058;17.040;2023-02-28T15:02:19;19.48;;;9.18;;
63350;SDS011;64988;51.058;17.040;2023-02-28T15:07:59;33.72;;;13.05;;
63350;SDS011;64988;51.058;17.040;2023-02-28T15:13:53;31.13;;;14.98;;
63350;SDS011;64988;51.058;17.040;2023-02-28T15:19:29;23.45;;;10.65;;
63350;SDS011;64988;51.058;17.040;2023-02-28T15:24:59;19.40;;;10.63;;
63350;SDS011;64988;51.058;17.040;2023-02-28T15:30:28;29.95;;;13.98;;
63350;SDS011;64988;51.058;17.040;2023-02-28T15:36:32;18.75;;;9.13;;
63350;SDS011;64988;51.058;17.040;2023-02-28T15:42:11;23.08;;;11.05;;
63350;SDS011;64988;51.058;17.040;2023-02-28T15:47:40;25.88;;;13.52;;
63350;SDS011;64988;51.058;17.040;2023-02-28T15:53:14;29.23;;;13.00;;
63350;SDS011;64988;51.058;17.040;2023-02-28T15:58:45;24.38;;;10.23;;
63350;SDS011;64988;51.058;17.040;2023-02-28T16:04:17;27.80;;;13.23;;
63350;SDS011;64988;51.058;17.040;2023-02-28T16:09:46;26.83;;;12.05;;
63350;SDS011;64988;51.058;17.040;2023-02-28T16:20:46;31.75;;;12.63;;
63350;SDS011;64988;51.058;17.040;2023-02-28T16:26:19;36.08;;;12.13;;
63350;SDS011;64988;51.058;17.040;2023-02-28T16:31:49;25.60;;;11.57;;
63350;SDS011;64988;51.058;17.040;2023-02-28T16:37:17;23.63;;;11.73;;
63350;SDS011;64988;51.058;17.040;2023-02-28T16:42:47;25.55;;;12.32;;
63350;SDS011;64988;51.058;17.040;2023-02-28T16:48:17;28.65;;;12.48;;
63350;SDS011;64988;51.058;17.040;2023-02-28T16:53:47;25.50;;;12.65;;
63350;SDS011;64988;51.058;17.040;2023-02-28T16:59:18;26.45;;;9.95;;
63350;SDS011;64988;51.058;17.040;2023-02-28T17:04:58;31.75;;;14.93;;
63350;SDS011;64988;51.058;17.040;2023-02-28T17:10:28;26.48;;;12.88;;
63350;SDS011;64988;51.058;17.040;2023-02-28T17:15:55;33.95;;;14.60;;
63350;SDS011;64988;51.058;17.040;2023-02-28T17:21:23;30.50;;;13.70;;
63350;SDS011;64988;51.058;17.040;2023-02-28T17:26:51;37.95;;;17.10;;
63350;SDS011;64988;51.058;17.040;2023-02-28T17:32:20;38.15;;;17.30;;
63350;SDS011;64988;51.058;17.040;2023-02-28T17:37:49;37.53;;;18.48;;
63350;SDS011;64988;51.058;17.040;2023-02-28T17:43:19;38.97;;;19.02;;
63350;SDS011;64988;51.058;17.040;2023-02-28T17:48:50;42.08;;;19.48;;
63350;SDS011;64988;51.058;17.040;2023-02-28T17:54:20;44.05;;;19.85;;
63350;SDS011;64988;51.058;17.040;2023-02-28T17:59:52;47.13;;;19.27;;
63350;SDS011;64988;51.058;17.040;2023-02-28T18:05:21;49.05;;;20.25;;
63350;SDS011;64988;51.058;17.040;2023-02-28T18:10:48;59.47;;;25.73;;
63350;SDS011;64988;51.058;17.040;2023-02-28T18:16:17;60.65;;;27.27;;
63350;SDS011;64988;51.058;17.040;2023-02-28T18:21:47;55.97;;;25.15;;
63350;SDS011;64988;51.058;17.040;2023-02-28T18:27:16;56.60;;;26.67;;
63350;SDS011;64988;51.058;17.040;2023-02-28T18:32:44;66.05;;;27.73;;
63350;SDS011;64988;51.058;17.040;2023-02-28T18:38:13;60.60;;;26.85;;
63350;SDS011;64988;51.058;17.040;2023-02-28T18:43:42;63.05;;;26.25;;
63350;SDS011;64988;51.058;17.040;2023-02-28T18:49:12;63.88;;;28.13;;
63350;SDS011;64988;51.058;17.040;2023-02-28T18:54:39;70.45;;;29.80;;
63350;SDS011;64988;51.058;17.040;2023-02-28T19:00:09;69.47;;;27.67;;
63350;SDS011;64988;51.058;17.040;2023-02-28T19:05:38;67.93;;;27.90;;
63350;SDS011;64988;51.058;17.040;2023-02-28T19:11:10;68.90;;;23.38;;
63350;SDS011;64988;51.058;17.040;2023-02-28T19:16:40;76.38;;;32.15;;
63350;SDS011;64988;51.058;17.040;2023-02-28T19:22:09;77.03;;;31.10;;
63350;SDS011;64988;51.058;17.040;2023-02-28T19:27:37;60.17;;;25.73;;
63350;SDS011;64988;51.058;17.040;2023-02-28T19:33:06;71.28;;;28.08;;
63350;SDS011;64988;51.058;17.040;2023-02-28T19:38:34;68.03;;;28.63;;
63350;SDS011;64988;51.058;17.040;2023-02-28T19:44:02;77.25;;;30.67;;
63350;SDS011;64988;51.058;17.040;2023-02-28T19:49:33;72.97;;;30.00;;
63350;SDS011;64988;51.058;17.040;2023-02-28T19:55:01;81.22;;;34.42;;
63350;SDS011;64988;51.058;17.040;2023-02-28T20:00:30;82.93;;;33.00;;
63350;SDS011;64988;51.058;17.040;2023-02-28T20:06:08;91.25;;;35.78;;
63350;SDS011;64988;51.058;17.040;2023-02-28T20:11:40;94.40;;;38.97;;
63350;SDS011;64988;51.058;17.040;2023-02-28T20:17:07;84.78;;;35.80;;
63350;SDS011;64988;51.058;17.040;2023-02-28T20:22:35;86.20;;;33.88;;
63350;SDS011;64988;51.058;17.040;2023-02-28T20:28:05;78.75;;;32.05;;
63350;SDS011;64988;51.058;17.040;2023-02-28T20:33:32;73.53;;;31.27;;
63350;SDS011;64988;51.058;17.040;2023-02-28T20:38:59;84.88;;;32.28;;
63350;SDS011;64988;51.058;17.040;2023-02-28T20:44:27;84.70;;;33.35;;
63350;SDS011;64988;51.058;17.040;2023-02-28T20:49:55;81.30;;;33.47;;
63350;SDS011;64988;51.058;17.040;2023-02-28T20:55:23;83.32;;;33.90;;
63350;SDS011;64988;51.058;17.040;2023-02-28T21:01:00;85.50;;;33.70;;
63350;SDS011;64988;51.058;17.040;2023-02-28T21:06:30;82.30;;;33.60;;
63350;SDS011;64988;51.058;17.040;2023-02-28T21:11:59;89.80;;;37.42;;
63350;SDS011;64988;51.058;17.040;2023-02-28T21:17:28;85.90;;;35.35;;
63350;SDS011;64988;51.058;17.040;2023-02-28T21:22:56;89.07;;;36.45;;
63350;SDS011;64988;51.058;17.040;2023-02-28T21:28:29;92.28;;;36.65;;
63350;SDS011;64988;51.058;17.040;2023-02-28T21:34:02;97.80;;;38.30;;
63350;SDS011;64988;51.058;17.040;2023-02-28T21:39:35;91.70;;;38.70;;
63350;SDS011;64988;51.058;17.040;2023-02-28T21:45:04;82.43;;;34.67;;
63350;SDS011;64988;51.058;17.040;2023-02-28T21:50:34;90.07;;;36.78;;
63350;SDS011;64988;51.058;17.040;2023-02-28T21:56:01;87.93;;;35.55;;
63350;SDS011;64988;51.058;17.040;2023-02-28T22:01:31;96.55;;;37.55;;
63350;SDS011;64988;51.058;17.040;2023-02-28T22:07:01;93.57;;;38.08;;
63350;SDS011;64988;51.058;17.040;2023-02-28T22:12:29;101.72;;;39.05;;
63350;SDS011;64988;51.058;17.040;2023-02-28T22:17:57;107.72;;;41.80;;
63350;SDS011;64988;51.058;17.040;2023-02-28T22:23:27;97.88;;;40.15;;
63350;SDS011;64988;51.058;17.040;2023-02-28T22:28:55;106.10;;;41.60;;
63350;SDS011;64988;51.058;17.040;2023-02-28T22:34:23;103.07;;;39.30;;
63350;SDS011;64988;51.058;17.040;2023-02-28T22:39:50;105.20;;;41.45;;
63350;SDS011;64988;51.058;17.040;2023-02-28T22:45:17;101.43;;;41.97;;
63350;SDS011;64988;51.058;17.040;2023-02-28T22:50:44;105.93;;;43.13;;
63350;SDS011;64988;51.058;17.040;2023-02-28T22:56:13;113.20;;;45.10;;
63350;SDS011;64988;51.058;17.040;2023-02-28T23:01:41;105.22;;;43.67;;
63350;SDS011;64988;51.058;17.040;2023-02-28T23:07:10;110.10;;;43.15;;
63350;SDS011;64988;51.058;17.040;2023-02-28T23:12:39;115.28;;;44.20;;
63350;SDS011;64988;51.058;17.040;2023-02-28T23:18:16;120.45;;;44.65;;
63350;SDS011;64988;51.058;17.040;2023-02-28T23:23:44;120.00;;;47.00;;
63350;SDS011;64988;51.058;17.040;2023-02-28T23:29:12;101.30;;;40.50;;
63350;SDS011;64988;51.058;17.040;2023-02-28T23:34:40;119.82;;;41.85;;
63350;SDS011;64988;51.058;17.040;2023-02-28T23:40:09;124.20;;;47.40;;
63350;SDS011;64988;51.058;17.040;2023-02-28T23:45:37;124.22;;;45.65;;
63350;SDS011;64988;51.058;17.040;2023-02-28T23:51:05;120.03;;;44.60;;
63350;SDS011;64988;51.058;17.040;2023-02-28T23:56:37;111.25;;;43.67;;
